Thunder radar more information blitzortung!


Radar de pluja more information rain snow radar


Visita la nostra xarxa de llocs de meteo:

Template documentation
and downloads

And another site



Wind From: 11-12-2017 11:00 Until: 14:59 warning for: Wind Level: Yellow info button

Pagina Historial Weather Underground text

Diari Resum Marc 28, 2016 Unitats:  Mètric    Imperial   Tant
« Previous Dia
SegĂźent Dia »
Diari Setmana Mensual Anual Personalitzada
  Maxima: Minima: Media:
Temperatura: 19.8 °C 7.4 °C 15.2 °C
Punt de rosada: 6.2 °C 2.7 °C 4.7 °C
Humitat: 76 % 40 % 51 %
Wind Speed: 18.5 km/h 0.0 km/h 7.1 km/h
RĂ fegues de vent: 18.5 km/h - -
Vent:- - WSW
Pression baro: 1018.8 hPa 1014.8 hPa -
Precipitacions: 0.0 mm    
Historical Graphs
 
 
Dades de taula per Marc 28, 2016
Temps Temperatura Punt de rosada Pression baro Vent Wind Speed RĂ fegues de vent Humitat Rainfall Rate (Hourly)
00:01 10.8 °C 5.7 °C 1018.8 hPa Calm     71 % 0.0 mm
00:06 10.8 °C 5.9 °C 1018.8 hPa Calm     72 % 0.0 mm
00:11 10.7 °C 5.7 °C 1018.8 hPa Calm     71 % 0.0 mm
00:16 10.6 °C 5.6 °C 1018.8 hPa Calm     71 % 0.0 mm
00:55 8.6 °C 4.4 °C 1016.8 hPa WSW 1.6 km/h 1.6 km/h 75 % 0.0 mm
01:05 8.6 °C 4.2 °C 1016.8 hPa Calm   3.2 km/h 74 % 0.0 mm
01:15 8.5 °C 3.9 °C 1015.8 hPa WSW 1.6 km/h 3.2 km/h 73 % 0.0 mm
01:25 8.3 °C 3.9 °C 1015.8 hPa SSW 1.6 km/h 3.2 km/h 74 % 0.0 mm
01:35 8.1 °C 3.9 °C 1015.8 hPa East 3.2 km/h 3.2 km/h 75 % 0.0 mm
01:45 8.1 °C 4.1 °C 1014.8 hPa ENE 3.2 km/h 3.2 km/h 76 % 0.0 mm
01:55 7.9 °C 3.9 °C 1015.8 hPa Calm   3.2 km/h 76 % 0.0 mm
02:05 7.6 °C 3.6 °C 1015.8 hPa Calm   1.6 km/h 76 % 0.0 mm
02:15 7.4 °C 3.3 °C 1015.8 hPa Calm   3.2 km/h 75 % 0.0 mm
02:25 7.6 °C 3.1 °C 1014.8 hPa Calm   3.2 km/h 73 % 0.0 mm
02:35 8.1 °C 3.3 °C 1014.8 hPa SW 3.2 km/h 3.2 km/h 72 % 0.0 mm
02:45 8.8 °C 3.6 °C 1015.8 hPa WSW 3.2 km/h 4.8 km/h 70 % 0.0 mm
02:55 9.1 °C 3.3 °C 1015.8 hPa WSW 3.2 km/h 4.8 km/h 67 % 0.0 mm
03:05 9.0 °C 3.0 °C 1015.8 hPa WSW 1.6 km/h 4.8 km/h 66 % 0.0 mm
03:15 9.0 °C 2.8 °C 1015.8 hPa WSW 3.2 km/h 6.4 km/h 65 % 0.0 mm
03:25 8.9 °C 2.7 °C 1015.8 hPa WSW 3.2 km/h 4.8 km/h 65 % 0.0 mm
03:35 8.9 °C 2.7 °C 1015.8 hPa WSW 3.2 km/h 6.4 km/h 65 % 0.0 mm
03:45 9.4 °C 2.7 °C 1015.8 hPa WSW 3.2 km/h 6.4 km/h 63 % 0.0 mm
03:55 10.0 °C 3.1 °C 1015.8 hPa Calm   4.8 km/h 62 % 0.0 mm
04:05 9.8 °C 3.3 °C 1015.8 hPa WSW 1.6 km/h 3.2 km/h 64 % 0.0 mm
04:15 9.3 °C 3.3 °C 1015.8 hPa SSE 1.6 km/h 3.2 km/h 66 % 0.0 mm
04:25 9.4 °C 3.6 °C 1015.8 hPa SW 1.6 km/h 3.2 km/h 67 % 0.0 mm
04:35 10.2 °C 3.9 °C 1015.8 hPa WSW 1.6 km/h 3.2 km/h 65 % 0.0 mm
04:45 11.2 °C 4.2 °C 1015.8 hPa WSW 3.2 km/h 6.4 km/h 62 % 0.0 mm
04:55 11.5 °C 4.4 °C 1015.8 hPa WSW 1.6 km/h 3.2 km/h 62 % 0.0 mm
05:05 11.8 °C 4.5 °C 1015.8 hPa WSW 1.6 km/h 4.8 km/h 61 % 0.0 mm
05:15 12.6 °C 4.1 °C 1015.8 hPa West 3.2 km/h 4.8 km/h 56 % 0.0 mm
05:25 12.9 °C 4.3 °C 1015.8 hPa West 1.6 km/h 6.4 km/h 56 % 0.0 mm
05:35 13.1 °C 4.5 °C 1015.8 hPa WSW 1.6 km/h 4.8 km/h 56 % 0.0 mm
06:05 14.1 °C 4.7 °C 1016.8 hPa WSW 4.8 km/h 4.8 km/h 53 % 0.0 mm
06:15 14.5 °C 4.8 °C 1015.8 hPa WSW 4.8 km/h 9.7 km/h 52 % 0.0 mm
06:25 14.8 °C 4.8 °C 1015.8 hPa WSW 4.8 km/h 9.7 km/h 51 % 0.0 mm
06:35 15.0 °C 4.7 °C 1015.8 hPa West 3.2 km/h 4.8 km/h 50 % 0.0 mm
06:45 15.3 °C 4.9 °C 1015.8 hPa WSW 4.8 km/h 11.3 km/h 50 % 0.0 mm
11:47 15.4 °C 4.7 °C 1015.8 hPa West 5.6 km/h 6.9 km/h 49 % 0.0 mm
11:52 15.4 °C 4.7 °C 1016.8 hPa WNW 5.6 km/h 5.6 km/h 49 % 0.0 mm
11:57 15.4 °C 4.4 °C 1016.8 hPa West 13.0 km/h 13.0 km/h 48 % 0.0 mm
12:02 15.5 °C 4.8 °C 1016.8 hPa WNW 4.2 km/h 4.2 km/h 49 % 0.0 mm
12:07 15.5 °C 4.8 °C 1015.8 hPa WSW 10.3 km/h 10.3 km/h 49 % 0.0 mm
12:12 15.3 °C 4.3 °C 1015.8 hPa NW 3.7 km/h 3.7 km/h 48 % 0.0 mm
12:17 15.3 °C 4.1 °C 1015.8 hPa West 9.3 km/h 9.3 km/h 47 % 0.0 mm
12:22 15.3 °C 4.1 °C 1015.8 hPa WSW 13.0 km/h 13.0 km/h 47 % 0.0 mm
12:27 15.4 °C 4.1 °C 1015.8 hPa WNW 5.6 km/h 5.6 km/h 47 % 0.0 mm
12:32 15.5 °C 4.2 °C 1015.8 hPa WSW 5.6 km/h 5.6 km/h 47 % 0.0 mm
12:37 15.5 °C 3.9 °C 1015.8 hPa SW 13.0 km/h 13.0 km/h 46 % 0.0 mm
12:42 15.5 °C 4.2 °C 1015.8 hPa SW 11.1 km/h 11.1 km/h 47 % 0.0 mm
12:47 15.8 °C 4.5 °C 1015.8 hPa West 6.9 km/h 6.9 km/h 47 % 0.0 mm
12:52 15.8 °C 4.2 °C 1016.8 hPa WSW 9.3 km/h 9.3 km/h 46 % 0.0 mm
12:57 16.0 °C 4.4 °C 1016.8 hPa SW 5.8 km/h 5.8 km/h 46 % 0.0 mm
13:02 16.1 °C 4.4 °C 1016.8 hPa SW 10.0 km/h 10.0 km/h 46 % 0.0 mm
13:07 16.2 °C 4.6 °C 1015.8 hPa WNW 9.3 km/h 9.3 km/h 46 % 0.0 mm
13:12 16.7 °C 5.0 °C 1015.8 hPa West 7.4 km/h 7.4 km/h 46 % 0.0 mm
13:17 16.7 °C 5.0 °C 1015.8 hPa WSW 11.1 km/h 11.1 km/h 46 % 0.0 mm
13:22 16.8 °C 4.8 °C 1015.8 hPa WSW 11.1 km/h 11.1 km/h 45 % 0.0 mm
13:32 17.1 °C 4.7 °C 1015.8 hPa NW 9.3 km/h 9.3 km/h 44 % 0.0 mm
13:37 17.1 °C 4.7 °C 1014.8 hPa West 10.0 km/h 10.0 km/h 44 % 0.0 mm
13:42 17.3 °C 4.9 °C 1014.8 hPa SW 9.3 km/h 9.3 km/h 44 % 0.0 mm
13:52 18.0 °C 5.2 °C 1015.8 hPa SW 9.3 km/h 9.3 km/h 43 % 0.0 mm
13:57 18.4 °C 5.6 °C 1015.8 hPa West 9.7 km/h 9.7 km/h 43 % 0.0 mm
14:02 19.0 °C 6.1 °C 1015.8 hPa NW 7.4 km/h 7.4 km/h 43 % 0.0 mm
14:07 19.0 °C 5.4 °C 1015.8 hPa SSW 13.0 km/h 13.0 km/h 41 % 0.0 mm
14:12 19.4 °C 5.8 °C 1015.8 hPa WSW 9.3 km/h 9.3 km/h 41 % 0.0 mm
14:17 19.8 °C 6.2 °C 1015.8 hPa SSW 11.1 km/h 11.1 km/h 41 % 0.0 mm
14:22 19.4 °C 5.4 °C 1015.8 hPa WSW 14.8 km/h 14.8 km/h 40 % 0.0 mm
14:27 19.1 °C 5.2 °C 1015.8 hPa WSW 14.8 km/h 14.8 km/h 40 % 0.0 mm
14:37 19.4 °C 5.4 °C 1015.8 hPa WNW 11.1 km/h 11.1 km/h 40 % 0.0 mm
14:42 19.6 °C 5.6 °C 1015.8 hPa West 10.8 km/h 10.8 km/h 40 % 0.0 mm
14:47 19.3 °C 5.3 °C 1015.8 hPa WNW 13.0 km/h 13.0 km/h 40 % 0.0 mm
14:52 19.2 °C 5.3 °C 1014.8 hPa NW 9.3 km/h 9.3 km/h 40 % 0.0 mm
14:57 19.1 °C 5.2 °C 1014.8 hPa WSW 11.9 km/h 11.9 km/h 40 % 0.0 mm
15:02 18.8 °C 4.9 °C 1014.8 hPa South 14.8 km/h 14.8 km/h 40 % 0.0 mm
15:07 18.7 °C 4.8 °C 1015.8 hPa WSW 14.8 km/h 14.8 km/h 40 % 0.0 mm
15:12 18.8 °C 5.3 °C 1015.8 hPa West 9.3 km/h 9.3 km/h 41 % 0.0 mm
15:17 18.6 °C 4.7 °C 1015.8 hPa WSW 13.0 km/h 13.0 km/h 40 % 0.0 mm
15:22 18.4 °C 4.6 °C 1015.8 hPa WSW 11.1 km/h 11.1 km/h 40 % 0.0 mm
15:27 18.4 °C 4.9 °C 1015.8 hPa WSW 7.4 km/h 7.4 km/h 41 % 0.0 mm
15:32 18.3 °C 4.8 °C 1015.8 hPa WSW 10.3 km/h 10.3 km/h 41 % 0.0 mm
15:37 18.0 °C 4.6 °C 1015.8 hPa WSW 16.7 km/h 16.7 km/h 41 % 0.0 mm
15:42 17.7 °C 4.3 °C 1015.8 hPa West 9.3 km/h 9.3 km/h 41 % 0.0 mm
15:47 17.8 °C 4.7 °C 1015.8 hPa NW 13.0 km/h 13.0 km/h 42 % 0.0 mm
15:52 17.7 °C 4.6 °C 1015.8 hPa SW 10.8 km/h 10.8 km/h 42 % 0.0 mm
15:57 17.6 °C 4.5 °C 1015.8 hPa WSW 17.5 km/h 17.5 km/h 42 % 0.0 mm
16:02 17.6 °C 4.5 °C 1015.8 hPa West 16.7 km/h 16.7 km/h 42 % 0.0 mm
16:07 17.5 °C 4.4 °C 1015.8 hPa SW 9.3 km/h 9.3 km/h 42 % 0.0 mm
16:12 17.6 °C 4.5 °C 1015.8 hPa WNW 11.1 km/h 11.1 km/h 42 % 0.0 mm
16:17 17.5 °C 4.4 °C 1015.8 hPa SSW 9.3 km/h 9.3 km/h 42 % 0.0 mm
16:22 17.5 °C 4.4 °C 1015.8 hPa West 13.0 km/h 13.0 km/h 42 % 0.0 mm
16:27 17.4 °C 4.7 °C 1015.8 hPa SW 13.0 km/h 13.0 km/h 43 % 0.0 mm
16:32 17.3 °C 4.3 °C 1015.8 hPa WSW 11.1 km/h 11.1 km/h 42 % 0.0 mm
16:37 17.4 °C 4.7 °C 1015.8 hPa WSW 12.2 km/h 12.2 km/h 43 % 0.0 mm
16:42 17.5 °C 4.8 °C 1015.8 hPa WSW 11.1 km/h 11.1 km/h 43 % 0.0 mm
16:47 17.6 °C 4.9 °C 1015.8 hPa WSW 7.4 km/h 7.4 km/h 43 % 0.0 mm
16:52 17.5 °C 4.8 °C 1015.8 hPa NW 11.1 km/h 11.1 km/h 43 % 0.0 mm
16:57 17.5 °C 4.8 °C 1015.8 hPa WSW 16.7 km/h 16.7 km/h 43 % 0.0 mm
17:02 17.6 °C 5.2 °C 1015.8 hPa WSW 7.4 km/h 7.4 km/h 44 % 0.0 mm
17:07 17.6 °C 5.2 °C 1015.8 hPa WSW 11.9 km/h 11.9 km/h 44 % 0.0 mm
17:12 17.5 °C 5.1 °C 1015.8 hPa WSW 7.9 km/h 7.9 km/h 44 % 0.0 mm
17:17 17.6 °C 5.2 °C 1015.8 hPa WSW 11.1 km/h 11.1 km/h 44 % 0.0 mm
17:22 17.6 °C 5.2 °C 1014.8 hPa West 13.0 km/h 13.0 km/h 44 % 0.0 mm
17:27 17.7 °C 5.3 °C 1014.8 hPa WSW 9.3 km/h 9.3 km/h 44 % 0.0 mm
17:32 17.7 °C 5.3 °C 1014.8 hPa ENE 18.5 km/h 18.5 km/h 44 % 0.0 mm
17:37 17.7 °C 5.3 °C 1015.8 hPa North 7.4 km/h 7.4 km/h 44 % 0.0 mm
17:42 17.8 °C 5.4 °C 1015.8 hPa SW 7.4 km/h 7.4 km/h 44 % 0.0 mm
17:47 17.7 °C 5.3 °C 1015.8 hPa WSW 18.5 km/h 18.5 km/h 44 % 0.0 mm
17:52 17.5 °C 5.1 °C 1015.8 hPa SW 11.1 km/h 11.1 km/h 44 % 0.0 mm
17:57 17.4 °C 5.0 °C 1015.8 hPa West 11.1 km/h 11.1 km/h 44 % 0.0 mm
18:02 17.4 °C 5.0 °C 1015.8 hPa WNW 11.4 km/h 11.4 km/h 44 % 0.0 mm
18:07 17.3 °C 4.9 °C 1015.8 hPa WSW 9.3 km/h 9.3 km/h 44 % 0.0 mm
18:12 17.3 °C 4.9 °C 1015.8 hPa SW 14.8 km/h 14.8 km/h 44 % 0.0 mm
18:17 17.2 °C 4.8 °C 1015.8 hPa WSW 13.0 km/h 13.0 km/h 44 % 0.0 mm
18:22 17.2 °C 4.8 °C 1015.8 hPa West 9.7 km/h 9.7 km/h 44 % 0.0 mm
18:27 17.1 °C 4.7 °C 1015.8 hPa WNW 9.3 km/h 9.3 km/h 44 % 0.0 mm
18:32 17.2 °C 4.8 °C 1015.8 hPa NNE 5.6 km/h 5.6 km/h 44 % 0.0 mm
18:37 17.1 °C 4.7 °C 1015.8 hPa WSW 9.3 km/h 9.3 km/h 44 % 0.0 mm
18:42 17.1 °C 4.7 °C 1015.8 hPa WSW 7.4 km/h 7.4 km/h 44 % 0.0 mm
18:47 17.0 °C 4.7 °C 1015.8 hPa SW 7.4 km/h 7.4 km/h 44 % 0.0 mm
18:52 17.0 °C 4.9 °C 1016.8 hPa WSW 7.4 km/h 7.4 km/h 45 % 0.0 mm
18:57 17.0 °C 4.9 °C 1016.8 hPa SW 7.4 km/h 7.4 km/h 45 % 0.0 mm
19:02 17.0 °C 4.9 °C 1016.8 hPa WSW 5.8 km/h 5.8 km/h 45 % 0.0 mm
19:07 16.9 °C 5.2 °C 1015.8 hPa West 7.4 km/h 7.4 km/h 46 % 0.0 mm
19:12 16.9 °C 5.2 °C 1015.8 hPa West 3.7 km/h 3.7 km/h 46 % 0.0 mm
19:17 16.8 °C 5.1 °C 1015.8 hPa WSW 3.7 km/h 3.7 km/h 46 % 0.0 mm
19:22 16.8 °C 5.4 °C 1015.8 hPa WSW 1.9 km/h 1.9 km/h 47 % 0.0 mm
19:27 16.7 °C 5.3 °C 1015.8 hPa WSW 4.2 km/h 4.2 km/h 47 % 0.0 mm
19:32 16.7 °C 5.3 °C 1015.8 hPa WSW 5.6 km/h 5.6 km/h 47 % 0.0 mm
19:37 16.7 °C 5.3 °C 1016.8 hPa NNW 3.7 km/h 3.7 km/h 47 % 0.0 mm
19:42 16.6 °C 5.2 °C 1016.8 hPa WSW 1.9 km/h 1.9 km/h 47 % 0.0 mm
19:47 16.6 °C 5.2 °C 1016.8 hPa WSW 4.7 km/h 4.7 km/h 47 % 0.0 mm
19:52 16.5 °C 5.2 °C 1015.8 hPa WSW 7.4 km/h 7.4 km/h 47 % 0.0 mm
19:57 16.4 °C 5.1 °C 1015.8 hPa SW 3.2 km/h   47 % 0.0 mm
20:02 16.3 °C 5.3 °C 1015.8 hPa WSW 3.7 km/h 3.7 km/h 48 % 0.0 mm
20:07 16.2 °C 5.2 °C 1015.8 hPa WSW 3.7 km/h 3.7 km/h 48 % 0.0 mm
20:12 16.2 °C 5.2 °C 1015.8 hPa WSW 3.7 km/h 3.7 km/h 48 % 0.0 mm
20:22 16.0 °C 5.0 °C 1015.8 hPa West 3.7 km/h 3.7 km/h 48 % 0.0 mm
20:27 15.9 °C 4.9 °C 1015.8 hPa WSW 3.9 km/h 3.9 km/h 48 % 0.0 mm
20:32 15.8 °C 5.1 °C 1015.8 hPa WSW 2.6 km/h 2.6 km/h 49 % 0.0 mm
20:37 15.8 °C 4.8 °C 1016.8 hPa WSW 9.3 km/h 9.3 km/h 48 % 0.0 mm
20:42 15.9 °C 5.2 °C 1016.8 hPa West 11.1 km/h 11.1 km/h 49 % 0.0 mm
20:47 15.8 °C 5.1 °C 1016.8 hPa WSW 7.4 km/h 7.4 km/h 49 % 0.0 mm
20:52 15.7 °C 5.3 °C 1015.8 hPa West 11.1 km/h 11.1 km/h 50 % 0.0 mm
20:57 15.7 °C 5.3 °C 1015.8 hPa SSE 7.4 km/h 7.4 km/h 50 % 0.0 mm
21:02 15.6 °C 5.2 °C 1015.8 hPa WSW 9.3 km/h 9.3 km/h 50 % 0.0 mm
21:07 15.5 °C 5.1 °C 1015.8 hPa SW 9.3 km/h 9.3 km/h 50 % 0.0 mm
21:12 15.4 °C 5.0 °C 1015.8 hPa WSW 3.7 km/h 3.9 km/h 50 % 0.0 mm
21:17 15.2 °C 5.1 °C 1015.8 hPa WSW 5.6 km/h 5.6 km/h 51 % 0.0 mm
21:22 15.1 °C 5.1 °C 1015.8 hPa WSW 5.6 km/h 5.6 km/h 51 % 0.0 mm
21:27 15.0 °C 4.9 °C 1015.8 hPa WSW 3.9 km/h 3.9 km/h 51 % 0.0 mm
21:32 14.7 °C 4.7 °C 1015.8 hPa WSW 3.9 km/h 3.9 km/h 51 % 0.0 mm
21:42 14.4 °C 4.7 °C 1015.8 hPa SW 3.7 km/h 3.7 km/h 52 % 0.0 mm
21:47 14.3 °C 4.6 °C 1015.8 hPa WSW 3.7 km/h 3.7 km/h 52 % 0.0 mm
21:52 14.2 °C 4.5 °C 1015.8 hPa SW 2.3 km/h 2.3 km/h 52 % 0.0 mm
21:57 14.1 °C 4.4 °C 1015.8 hPa WSW 3.9 km/h 3.9 km/h 52 % 0.0 mm
22:02 14.1 °C 4.4 °C 1015.8 hPa West 3.7 km/h 3.7 km/h 52 % 0.0 mm
22:07 14.1 °C 4.4 °C 1016.8 hPa WSW 4.2 km/h 4.2 km/h 52 % 0.0 mm
22:12 14.1 °C 4.7 °C 1016.8 hPa WSW 5.6 km/h 5.6 km/h 53 % 0.0 mm
22:22 14.1 °C 4.7 °C 1016.8 hPa WSW 7.9 km/h 7.9 km/h 53 % 0.0 mm
22:27 14.2 °C 5.0 °C 1016.8 hPa WSW 9.3 km/h 9.3 km/h 54 % 0.0 mm
22:32 14.3 °C 5.1 °C 1016.8 hPa WSW 9.3 km/h 9.3 km/h 54 % 0.0 mm
22:37 14.3 °C 5.1 °C 1016.8 hPa WSW 7.4 km/h 7.4 km/h 54 % 0.0 mm
22:42 14.3 °C 5.1 °C 1016.8 hPa WNW 11.1 km/h 11.1 km/h 54 % 0.0 mm
22:47 14.3 °C 5.1 °C 1016.8 hPa WNW 9.3 km/h 9.3 km/h 54 % 0.0 mm
22:52 14.3 °C 5.1 °C 1016.8 hPa SW 5.6 km/h 5.6 km/h 54 % 0.0 mm
22:57 14.3 °C 5.1 °C 1016.8 hPa West 3.7 km/h 3.7 km/h 54 % 0.0 mm
23:02 14.3 °C 5.1 °C 1016.8 hPa SW 1.9 km/h   54 % 0.0 mm
23:07 14.3 °C 5.1 °C 1017.8 hPa SE 1.9 km/h 1.9 km/h 54 % 0.0 mm
23:12 14.3 °C 5.1 °C 1017.8 hPa WSW 4.2 km/h 4.2 km/h 54 % 0.0 mm
23:17 13.8 °C 4.9 °C 1017.8 hPa SW 5.6 km/h 5.6 km/h 55 % 0.0 mm
23:22 13.7 °C 4.8 °C 1017.8 hPa SW 3.9 km/h 3.9 km/h 55 % 0.0 mm
23:27 13.7 °C 4.8 °C 1017.8 hPa SW 3.7 km/h 3.7 km/h 55 % 0.0 mm
23:32 13.9 °C 5.0 °C 1017.8 hPa WSW 7.4 km/h 7.4 km/h 55 % 0.0 mm
23:37 13.9 °C 5.0 °C 1017.8 hPa West 3.7 km/h 3.7 km/h 55 % 0.0 mm
Meteo Sesrovires
Elogis d' Weather Underground - 3.5 mb

Guio original per  Jim McMurry - jmcmurry@mwt.net Adaptat per a la plantilla per  Wim van der Kuil - Leuven-Template.eu

Trobareu la nostra informacio del temps tambe a:

Weather Underground

AWEKAS